Startpagina
METAR-TAF:

METAR-TAF

Vliegvelden :

Dharaan, Saoedi-Arabië

breedte: 26-16N, lengte: 050-09E, hoogte: 26 m

Actueel weer

Dit bericht is 18 minuten geleden gemaakt, om 21:00 UTC
Wind 2 kt uit variabele richting
Temperatuur 20°C
Vochtigheid 88%
Druk 1015 hPa
Zicht 10 km of meer
geen wolken onder 1500 m en geen cumulonimbus

METAR: OEDR 232100Z VRB02KT CAVOK 20/18 Q1015 NOSIG

Tijdstip: 00:18 (21:18 UTC)

Verwachting

Dit bericht is 6 uur en het 18 minuten geleden gemaakt, om 15:00 UTC
Verwachting geldig van 23 om 18 UTC tot 24 om 24 UTC
Wind 5 kt uit het oostzuidoosten
Zicht: 8000 m
Tijdelijke
van 24 om 00 UTC tot 24 om 06 UTC
Wind 4 kt uit variabele richting
Zicht: 4000 m
nevel
Wijzigt naar
van 24 om 06 UTC tot 24 om 08 UTC
Wind 15 kt uit het zuidoosten

TAF: OEDR 231500Z 2318/2424 12005KT 8000 NSC TEMPO 2400/2406 VRB04KT 4000 BR BECMG 2406/2408 14015KT

Waarnemingen en weersverwachtingen van meer dan 4000 vliegvelden (METAR en TAF).

De beschikbare stations zijn de gele en rode punten op de kaart.

Ga met uw muis naar het station om de naam te zien.

Klik dan om waarnemingen en weersverwachtingen te zien.

kaart wijzigen: klik op de groene knoppen met een zwart kruis om in te zoomen, op de groene knop met een streepje om uit te zoomen of op de groene pijlen voor aangrenzende kaarten.


METAR-TAF: